createdAt,value
2016-08-26T00:00:11.508Z,26.28
2016-08-26T00:01:11.495Z,26.25
2016-08-26T00:02:11.478Z,26.28
2016-08-26T00:03:11.466Z,26.29
2016-08-26T00:04:11.447Z,26.22
2016-08-26T00:05:11.431Z,26.22
2016-08-26T00:06:11.433Z,26.23
2016-08-26T00:07:11.404Z,26.25
2016-08-26T00:08:11.389Z,26.29
2016-08-26T00:09:11.374Z,26.23
2016-08-26T00:10:11.373Z,26.19
2016-08-26T00:11:11.343Z,26.19
2016-08-26T00:12:11.326Z,26.21
2016-08-26T00:13:11.312Z,26.23
2016-08-26T00:14:11.297Z,26.18
2016-08-26T00:15:11.280Z,26.19
2016-08-26T00:16:11.268Z,26.15
2016-08-26T00:17:11.251Z,26.05
2016-08-26T00:18:11.238Z,26.13
2016-08-26T00:19:11.222Z,26.07
2016-08-26T00:20:11.207Z,26.07
2016-08-26T00:21:11.195Z,26.1
2016-08-26T00:22:11.177Z,26.09
2016-08-26T00:23:11.174Z,26.03
2016-08-26T00:24:11.150Z,26.05
2016-08-26T00:25:11.131Z,26.07
2016-08-26T00:26:11.122Z,26.03
2016-08-26T00:27:11.107Z,26.06
2016-08-26T00:28:11.094Z,25.96
2016-08-26T00:29:11.075Z,25.99
2016-08-26T00:30:11.058Z,25.99
2016-08-26T00:31:11.060Z,26.02
2016-08-26T00:32:11.028Z,25.98
2016-08-26T00:33:11.015Z,25.96
2016-08-26T00:34:10.997Z,25.96
2016-08-26T00:35:10.983Z,25.99
2016-08-26T00:36:10.971Z,26.06
2016-08-26T00:37:10.954Z,25.95
2016-08-26T00:38:10.939Z,25.99
2016-08-26T00:39:10.923Z,26.02
2016-08-26T00:40:10.909Z,25.95
2016-08-26T00:41:10.896Z,25.95
2016-08-26T00:42:10.879Z,25.87
2016-08-26T00:43:10.864Z,25.95
2016-08-26T00:44:10.847Z,25.84
2016-08-26T00:45:10.831Z,25.88
2016-08-26T00:46:10.820Z,25.84
2016-08-26T00:47:10.803Z,25.93
2016-08-26T00:48:10.788Z,25.88
2016-08-26T00:49:10.771Z,25.96
2016-08-26T00:50:10.757Z,25.84
2016-08-26T00:51:10.744Z,25.9
2016-08-26T00:52:10.726Z,25.9
2016-08-26T00:53:10.713Z,25.88
2016-08-26T00:54:10.699Z,25.88
2016-08-26T00:55:10.683Z,25.88
2016-08-26T00:56:10.668Z,25.84
2016-08-26T00:57:10.650Z,25.84
2016-08-26T00:58:10.636Z,25.85
2016-08-26T00:59:10.623Z,25.87
2016-08-26T01:00:10.606Z,25.75
2016-08-26T01:01:10.595Z,25.88
2016-08-26T01:02:10.587Z,25.88
2016-08-26T01:03:10.561Z,25.83
2016-08-26T01:04:10.546Z,25.84
2016-08-26T01:05:10.529Z,25.83
2016-08-26T01:06:10.525Z,25.77
2016-08-26T01:07:10.498Z,25.7
2016-08-26T01:08:10.484Z,25.66
2016-08-26T01:09:10.470Z,25.69
2016-08-26T01:10:10.462Z,25.66
2016-08-26T01:11:10.445Z,25.7
2016-08-26T01:12:10.425Z,25.62
2016-08-26T01:13:10.407Z,25.68
2016-08-26T01:14:10.393Z,25.62
2016-08-26T01:15:10.379Z,25.55
2016-08-26T01:16:10.368Z,25.55
2016-08-26T01:17:10.358Z,25.62
2016-08-26T01:18:11.037Z,25.59
2016-08-26T01:19:10.317Z,25.58
2016-08-26T01:20:10.313Z,25.47
2016-08-26T01:21:10.294Z,25.54
2016-08-26T01:22:10.273Z,25.48
2016-08-26T01:23:10.262Z,25.47
2016-08-26T01:24:10.245Z,25.48
2016-08-26T01:25:10.225Z,25.4
2016-08-26T01:26:10.212Z,25.38
2016-08-26T01:27:10.194Z,25.33
2016-08-26T01:28:10.180Z,25.44
2016-08-26T01:29:10.170Z,25.36
2016-08-26T01:30:10.147Z,25.35
2016-08-26T01:31:10.142Z,25.44
2016-08-26T01:32:10.116Z,25.32
2016-08-26T01:33:10.101Z,25.29
2016-08-26T01:34:10.087Z,25.28
2016-08-26T01:35:10.071Z,25.22
2016-08-26T01:36:10.070Z,25.26
2016-08-26T01:37:10.041Z,25.23
2016-08-26T01:38:10.024Z,25.23
2016-08-26T01:39:10.010Z,25.17
2016-08-26T01:40:09.998Z,25.26
2016-08-26T01:41:09.977Z,25.14
2016-08-26T01:42:09.973Z,25.14
2016-08-26T01:43:09.948Z,25.18
2016-08-26T01:44:09.933Z,25.17
2016-08-26T01:45:09.921Z,25.16
2016-08-26T01:46:09.901Z,25.08
2016-08-26T01:47:09.884Z,25.17
2016-08-26T01:48:09.874Z,25.17
2016-08-26T01:49:09.856Z,25.1
2016-08-26T01:50:09.839Z,25.14
2016-08-26T01:51:09.830Z,25.06
2016-08-26T01:52:09.813Z,25.07
2016-08-26T01:53:09.793Z,25.07
2016-08-26T01:54:09.777Z,25.03
2016-08-26T01:55:09.769Z,25.11
2016-08-26T01:56:09.744Z,25.04
2016-08-26T01:57:10.422Z,24.98
2016-08-26T01:58:10.405Z,25.04
2016-08-26T01:59:09.700Z,24.98
2016-08-26T02:00:09.682Z,24.86
2016-08-26T02:01:09.668Z,24.99
2016-08-26T02:02:09.651Z,24.98
2016-08-26T02:03:09.633Z,24.96
2016-08-26T02:04:09.621Z,24.98
2016-08-26T02:05:09.604Z,24.81
2016-08-26T02:06:09.590Z,24.93
2016-08-26T02:07:09.573Z,24.88
2016-08-26T02:08:09.557Z,24.85
2016-08-26T02:09:09.544Z,24.93
2016-08-26T02:10:09.527Z,24.95
2016-08-26T02:11:09.514Z,24.86
2016-08-26T02:12:09.499Z,24.84
2016-08-26T02:13:09.478Z,24.85
2016-08-26T02:14:09.473Z,24.8
2016-08-26T02:15:09.446Z,24.86
2016-08-26T02:16:09.427Z,24.89
2016-08-26T02:17:09.420Z,24.81
2016-08-26T02:18:09.397Z,24.84
2016-08-26T02:19:09.382Z,24.73
2016-08-26T02:20:09.364Z,24.85
2016-08-26T02:21:09.364Z,24.7
2016-08-26T02:22:09.341Z,24.77
2016-08-26T02:23:09.320Z,24.78
2016-08-26T02:24:09.305Z,24.78
2016-08-26T02:25:09.286Z,24.73
2016-08-26T02:26:09.276Z,24.69
2016-08-26T02:27:09.254Z,24.7
2016-08-26T02:28:09.238Z,24.76
2016-08-26T02:29:09.223Z,24.7
2016-08-26T02:30:09.213Z,24.63
2016-08-26T02:31:09.193Z,24.66
2016-08-26T02:32:09.175Z,24.68
2016-08-26T02:33:09.162Z,24.65
2016-08-26T02:34:09.150Z,24.69
2016-08-26T02:35:09.139Z,24.63
2016-08-26T02:36:09.112Z,24.66
2016-08-26T02:37:09.093Z,24.61
2016-08-26T02:38:09.079Z,24.65
2016-08-26T02:39:09.066Z,24.63
2016-08-26T02:40:09.047Z,24.65
2016-08-26T02:41:09.033Z,24.63
2016-08-26T02:42:09.026Z,24.58
2016-08-26T02:43:09.010Z,24.55
2016-08-26T02:44:08.987Z,24.57
2016-08-26T02:45:08.976Z,24.5
2016-08-26T02:46:08.955Z,24.53
2016-08-26T02:47:08.941Z,24.51
2016-08-26T02:48:08.923Z,24.45
2016-08-26T02:49:08.908Z,24.48
2016-08-26T02:50:08.888Z,24.51
2016-08-26T02:51:08.875Z,24.51
2016-08-26T02:52:08.865Z,24.42
2016-08-26T02:53:08.841Z,24.4
2016-08-26T02:54:08.831Z,24.36
2016-08-26T02:55:08.807Z,24.32
2016-08-26T02:56:09.494Z,24.36
2016-08-26T02:57:08.776Z,24.36
2016-08-26T02:58:08.759Z,24.35
2016-08-26T02:59:08.748Z,24.32
2016-08-26T03:00:08.728Z,24.3
2016-08-26T03:01:08.713Z,24.33
2016-08-26T03:02:08.698Z,24.39
2016-08-26T03:03:08.685Z,24.42
2016-08-26T03:04:08.672Z,24.35
2016-08-26T03:05:08.649Z,24.35
2016-08-26T03:06:08.634Z,24.33
2016-08-26T03:07:08.615Z,24.32
2016-08-26T03:08:08.603Z,24.32
2016-08-26T03:09:08.590Z,24.36
2016-08-26T03:10:08.566Z,24.35
2016-08-26T03:11:08.550Z,24.33
2016-08-26T03:12:08.537Z,24.3
2016-08-26T03:13:08.522Z,24.32
2016-08-26T03:14:08.506Z,24.33
2016-08-26T03:15:08.487Z,24.29
2016-08-26T03:16:08.473Z,24.21
2016-08-26T03:17:08.455Z,24.3
2016-08-26T03:18:08.441Z,24.33
2016-08-26T03:19:08.426Z,24.23
2016-08-26T03:20:08.408Z,24.24
2016-08-26T03:21:08.394Z,24.28
2016-08-26T03:22:08.375Z,24.24
2016-08-26T03:23:08.359Z,24.2
2016-08-26T03:24:08.345Z,24.21
2016-08-26T03:25:08.325Z,24.24
2016-08-26T03:26:08.311Z,24.21
2016-08-26T03:27:08.296Z,24.21
2016-08-26T03:28:08.278Z,24.2
2016-08-26T03:29:08.271Z,24.24
2016-08-26T03:30:08.244Z,24.24
2016-08-26T03:31:08.244Z,24.16
2016-08-26T03:32:08.220Z,24.18
2016-08-26T03:33:08.196Z,24.21
2016-08-26T03:34:08.182Z,24.24
2016-08-26T03:35:08.162Z,24.21
2016-08-26T03:36:08.150Z,24.2
2016-08-26T03:37:08.130Z,24.21
2016-08-26T03:38:08.117Z,24.2
2016-08-26T03:39:08.103Z,24.3
2016-08-26T03:40:08.080Z,24.2
2016-08-26T03:41:08.064Z,24.2
2016-08-26T03:42:08.050Z,24.24
2016-08-26T03:43:08.036Z,24.24
2016-08-26T03:44:08.017Z,24.24
2016-08-26T03:45:08.004Z,24.23
2016-08-26T03:46:07.994Z,24.21
2016-08-26T03:47:07.967Z,24.21
2016-08-26T03:48:07.954Z,24.16
2016-08-26T03:49:07.938Z,24.2
2016-08-26T03:50:07.922Z,24.21
2016-08-26T03:51:07.906Z,24.18
2016-08-26T03:52:07.889Z,24.14
2016-08-26T03:53:07.870Z,24.16
2016-08-26T03:54:07.857Z,24.11
2016-08-26T03:55:07.840Z,24.18
2016-08-26T03:56:07.822Z,24.13
2016-08-26T03:57:07.807Z,24.03
2016-08-26T03:58:07.789Z,24.02
2016-08-26T03:59:07.785Z,24.1
2016-08-26T04:00:07.758Z,24.11
2016-08-26T04:01:07.738Z,24.17
2016-08-26T04:02:07.724Z,24.06
2016-08-26T04:03:07.707Z,24.13
2016-08-26T04:04:07.691Z,24.14
2016-08-26T04:05:07.674Z,24.13
2016-08-26T04:06:07.657Z,24.1
2016-08-26T04:07:07.642Z,24.05
2016-08-26T04:08:07.632Z,24.11
2016-08-26T04:09:07.612Z,24.16
2016-08-26T04:10:07.610Z,24.08
2016-08-26T04:11:07.579Z,24.1
2016-08-26T04:12:07.564Z,24.03
2016-08-26T04:13:07.544Z,24.05
2016-08-26T04:14:07.531Z,24.05
2016-08-26T04:15:07.512Z,23.95
2016-08-26T04:16:07.498Z,24.03
2016-08-26T04:17:07.482Z,24.01
2016-08-26T04:18:07.463Z,24.01
2016-08-26T04:19:07.448Z,24.02
2016-08-26T04:20:07.431Z,24.01
2016-08-26T04:21:07.414Z,24.01
2016-08-26T04:22:07.400Z,24.01
2016-08-26T04:23:07.384Z,24.01
2016-08-26T04:24:07.368Z,24.01
2016-08-26T04:25:07.350Z,24.01
2016-08-26T04:26:07.338Z,23.99
2016-08-26T04:27:07.319Z,23.95
2016-08-26T04:28:07.299Z,24.02
2016-08-26T04:29:07.284Z,23.96
2016-08-26T04:30:07.272Z,23.99
2016-08-26T04:31:07.251Z,23.98
2016-08-26T04:32:07.237Z,24.01
2016-08-26T04:33:07.223Z,23.95
2016-08-26T04:34:07.201Z,23.95
2016-08-26T04:35:07.185Z,23.93
2016-08-26T04:36:07.175Z,23.91
2016-08-26T04:37:07.161Z,23.95
2016-08-26T04:38:07.138Z,23.95
2016-08-26T04:39:07.121Z,23.99
2016-08-26T04:40:07.103Z,24.05
2016-08-26T04:41:07.090Z,23.95
2016-08-26T04:42:07.073Z,23.95
2016-08-26T04:43:07.056Z,23.98
2016-08-26T04:44:07.041Z,23.92
2016-08-26T04:45:07.024Z,23.95
2016-08-26T04:46:07.007Z,23.93
2016-08-26T04:47:06.987Z,23.95
2016-08-26T04:48:06.987Z,23.93
2016-08-26T04:49:06.968Z,23.95
2016-08-26T04:50:06.940Z,23.88
2016-08-26T04:51:06.929Z,23.99
2016-08-26T04:52:06.913Z,23.95
2016-08-26T04:53:06.895Z,23.95
2016-08-26T04:54:06.876Z,23.99
2016-08-26T04:55:06.859Z,23.99
2016-08-26T04:56:06.846Z,24.03
2016-08-26T04:57:06.824Z,24.02
2016-08-26T04:58:06.810Z,23.98
2016-08-26T04:59:06.795Z,23.98
2016-08-26T05:00:06.780Z,24.05
2016-08-26T05:01:06.764Z,24.01
2016-08-26T05:02:06.743Z,24.08
2016-08-26T05:03:06.730Z,23.95
2016-08-26T05:04:06.712Z,24.02
2016-08-26T05:05:06.697Z,24.02
2016-08-26T05:06:07.374Z,23.93
2016-08-26T05:07:06.664Z,24.06
2016-08-26T05:08:06.644Z,24.06
2016-08-26T05:09:06.630Z,24.06
2016-08-26T05:10:06.617Z,24.11
2016-08-26T05:11:06.597Z,24.11
2016-08-26T05:12:06.582Z,24.06
2016-08-26T05:13:06.569Z,24.16
2016-08-26T05:14:06.550Z,24.11
2016-08-26T05:15:06.547Z,24.14
2016-08-26T05:16:07.215Z,24.21
2016-08-26T05:17:06.500Z,24.2
2016-08-26T05:18:06.487Z,24.28
2016-08-26T05:19:06.471Z,24.26
2016-08-26T05:20:06.456Z,24.16
2016-08-26T05:21:06.454Z,24.24
2016-08-26T05:22:06.422Z,24.32
2016-08-26T05:23:06.406Z,24.2
2016-08-26T05:24:06.399Z,24.29
2016-08-26T05:25:06.377Z,24.29
2016-08-26T05:26:06.356Z,24.3
2016-08-26T05:27:06.359Z,24.36
2016-08-26T05:28:06.326Z,24.35
2016-08-26T05:29:06.312Z,24.33
2016-08-26T05:30:06.301Z,24.42
2016-08-26T05:31:06.275Z,24.36
2016-08-26T05:32:06.263Z,24.51
2016-08-26T05:33:06.245Z,24.47
2016-08-26T05:34:06.227Z,24.43
2016-08-26T05:35:06.215Z,24.53
2016-08-26T05:36:06.194Z,24.53
2016-08-26T05:37:06.182Z,24.48
2016-08-26T05:38:06.169Z,24.54
2016-08-26T05:39:06.149Z,24.61
2016-08-26T05:40:06.139Z,24.58
2016-08-26T05:41:06.120Z,24.65
2016-08-26T05:42:06.101Z,24.66
2016-08-26T05:43:06.086Z,24.8
2016-08-26T05:44:06.070Z,24.77
2016-08-26T05:45:06.062Z,24.69
2016-08-26T05:46:06.042Z,24.81
2016-08-26T05:47:06.028Z,24.85
2016-08-26T05:48:06.008Z,24.95
2016-08-26T05:49:05.998Z,24.93
2016-08-26T05:50:05.991Z,24.93
2016-08-26T05:51:05.962Z,24.95
2016-08-26T05:52:05.947Z,24.91
2016-08-26T05:53:05.926Z,24.91
2016-08-26T05:54:05.916Z,25.01
2016-08-26T05:55:05.900Z,25.04
2016-08-26T05:56:05.884Z,25.07
2016-08-26T05:57:05.870Z,25.04
2016-08-26T05:58:05.856Z,25.1
2016-08-26T05:59:05.842Z,25.17
2016-08-26T06:00:05.826Z,25.1
2016-08-26T06:01:05.809Z,25.21
2016-08-26T06:02:05.795Z,25.21
2016-08-26T06:03:05.787Z,25.31
2016-08-26T06:04:05.764Z,25.33
2016-08-26T06:05:05.771Z,25.22
2016-08-26T06:06:05.737Z,25.38
2016-08-26T06:07:05.718Z,25.44
2016-08-26T06:08:05.717Z,25.43
2016-08-26T06:09:05.688Z,25.5
2016-08-26T06:10:05.673Z,25.47
2016-08-26T06:11:05.657Z,25.47
2016-08-26T06:12:05.639Z,25.46
2016-08-26T06:13:05.626Z,25.53
2016-08-26T06:14:05.610Z,25.47
2016-08-26T06:15:05.594Z,25.59
2016-08-26T06:16:05.582Z,25.54
2016-08-26T06:17:05.565Z,25.53
2016-08-26T06:18:05.550Z,25.63
2016-08-26T06:19:05.540Z,25.62
2016-08-26T06:20:05.524Z,25.66
2016-08-26T06:21:05.507Z,25.69
2016-08-26T06:22:05.492Z,25.75
2016-08-26T06:23:05.479Z,25.78
2016-08-26T06:24:05.466Z,25.8
2016-08-26T06:25:05.451Z,25.81
2016-08-26T06:26:05.433Z,25.95
2016-08-26T06:27:05.426Z,25.95
2016-08-26T06:28:05.402Z,25.96
2016-08-26T06:29:05.390Z,26.07
2016-08-26T06:30:05.380Z,26.18
2016-08-26T06:31:05.366Z,26.29
2016-08-26T06:32:05.351Z,26.29
2016-08-26T06:33:05.337Z,26.41
2016-08-26T06:34:05.323Z,26.52
2016-08-26T06:35:05.313Z,26.53
2016-08-26T06:36:05.299Z,26.59
2016-08-26T06:37:05.283Z,26.83
2016-08-26T06:38:05.285Z,26.85
2016-08-26T06:39:05.257Z,26.89
2016-08-26T06:40:05.249Z,27.11
2016-08-26T06:41:05.240Z,27.08
2016-08-26T06:42:05.225Z,27.26
2016-08-26T06:43:05.210Z,27.35
2016-08-26T06:44:05.199Z,27.37
2016-08-26T06:45:05.191Z,27.47
2016-08-26T06:46:05.180Z,27.51
2016-08-26T06:47:05.167Z,27.67
2016-08-26T06:48:05.163Z,27.6
2016-08-26T06:49:05.142Z,27.67
2016-08-26T06:50:05.138Z,27.83
2016-08-26T06:51:05.119Z,27.87
2016-08-26T06:52:05.108Z,27.86
2016-08-26T06:53:05.100Z,27.85
2016-08-26T06:54:05.084Z,28.01
2016-08-26T06:55:05.076Z,27.98
2016-08-26T06:56:05.065Z,28
2016-08-26T06:57:05.050Z,27.96
2016-08-26T06:58:05.034Z,27.95
2016-08-26T06:59:05.030Z,27.96
2016-08-26T07:00:05.838Z,28.1
2016-08-26T07:01:04.999Z,28.08
2016-08-26T07:02:04.995Z,28.11
2016-08-26T07:03:04.977Z,28.19
2016-08-26T07:04:04.968Z,28.19
2016-08-26T07:05:04.954Z,28.22
2016-08-26T07:06:04.939Z,28.35
2016-08-26T07:07:04.932Z,28.39
2016-08-26T07:08:04.921Z,28.45
2016-08-26T07:09:04.905Z,28.47
2016-08-26T07:10:04.898Z,28.62
2016-08-26T07:11:04.887Z,28.74
2016-08-26T07:12:04.873Z,28.89
2016-08-26T07:13:04.863Z,28.98
2016-08-26T07:14:04.851Z,29.05
2016-08-26T07:15:04.845Z,29.16
2016-08-26T07:16:04.835Z,29.23
2016-08-26T07:17:04.823Z,29.38
2016-08-26T07:18:04.824Z,29.53
2016-08-26T07:19:04.809Z,29.51
2016-08-26T07:20:04.799Z,29.65
2016-08-26T07:21:04.797Z,29.73
2016-08-26T07:22:05.468Z,29.79
2016-08-26T07:23:04.775Z,29.9
2016-08-26T07:24:05.555Z,29.9
2016-08-26T07:25:04.753Z,29.86
2016-08-26T07:26:05.442Z,30.02
2016-08-26T07:27:04.731Z,29.98
2016-08-26T07:28:04.724Z,30.02
2016-08-26T07:29:04.716Z,30.03
2016-08-26T07:30:05.433Z,29.95
2016-08-26T07:31:04.696Z,30.06
2016-08-26T07:32:04.685Z,30.19
2016-08-26T07:33:05.372Z,30.27
2016-08-26T07:34:04.671Z,30.39
2016-08-26T07:35:04.662Z,30.4
2016-08-26T07:36:04.653Z,30.48
2016-08-26T07:37:04.643Z,30.59
2016-08-26T07:38:04.640Z,30.68
2016-08-26T07:39:04.626Z,30.66
2016-08-26T07:40:04.618Z,30.72
2016-08-26T07:41:04.618Z,30.73
2016-08-26T07:42:04.604Z,30.87
2016-08-26T07:43:04.601Z,31.02
2016-08-26T07:44:04.602Z,31.03
2016-08-26T07:45:04.585Z,31.1
2016-08-26T07:46:04.578Z,31.21
2016-08-26T07:47:04.565Z,31.29
2016-08-26T07:48:04.561Z,31.55
2016-08-26T07:49:04.547Z,31.54
2016-08-26T07:50:04.546Z,31.64
2016-08-26T07:51:04.535Z,31.73
2016-08-26T07:52:04.527Z,31.78
2016-08-26T07:53:04.627Z,31.71
2016-08-26T07:54:04.511Z,31.7
2016-08-26T07:55:04.508Z,31.73
2016-08-26T07:56:04.499Z,31.74
2016-08-26T07:57:04.491Z,31.85
2016-08-26T07:58:04.489Z,31.8
2016-08-26T07:59:04.483Z,31.81
2016-08-26T08:00:04.475Z,31.84
2016-08-26T08:01:04.471Z,31.92
2016-08-26T08:02:04.460Z,31.92
2016-08-26T08:03:04.451Z,31.99
2016-08-26T08:04:05.209Z,31.99
2016-08-26T08:05:04.442Z,31.96
2016-08-26T08:06:04.435Z,32.09
2016-08-26T08:07:04.426Z,32.12
2016-08-26T08:08:04.417Z,32.01
2016-08-26T08:09:04.409Z,32.07
2016-08-26T08:10:04.405Z,32.07
2016-08-26T08:11:04.395Z,32
2016-08-26T08:12:04.385Z,31.94
2016-08-26T08:13:04.387Z,31.97
2016-08-26T08:14:04.371Z,31.96
2016-08-26T08:15:04.363Z,31.99
2016-08-26T08:16:04.359Z,31.85
2016-08-26T08:17:04.345Z,31.85
2016-08-26T08:18:04.336Z,31.85
2016-08-26T08:19:04.329Z,31.74
2016-08-26T08:20:04.323Z,31.61
2016-08-26T08:21:04.308Z,31.58
2016-08-26T08:22:04.298Z,31.56
2016-08-26T08:23:04.292Z,31.61
2016-08-26T08:24:04.285Z,31.54
2016-08-26T08:25:04.272Z,31.61
2016-08-26T08:26:04.262Z,31.51
2016-08-26T08:27:04.251Z,31.58
2016-08-26T08:28:04.245Z,31.51
2016-08-26T08:29:04.235Z,31.55
2016-08-26T08:30:04.222Z,31.39
2016-08-26T08:31:04.213Z,31.49
2016-08-26T08:32:04.205Z,31.44
2016-08-26T08:33:04.190Z,31.43
2016-08-26T08:34:04.199Z,31.44
2016-08-26T08:35:04.174Z,31.42
2016-08-26T08:36:04.160Z,31.43
2016-08-26T08:37:04.152Z,31.37
2016-08-26T08:38:04.143Z,31.42
2016-08-26T08:39:04.131Z,31.42
2016-08-26T08:40:04.124Z,31.43
2016-08-26T08:41:04.110Z,31.37
2016-08-26T08:42:04.099Z,31.33
2016-08-26T08:43:04.094Z,31.33
2016-08-26T08:44:04.081Z,31.34
2016-08-26T08:45:04.073Z,31.43
2016-08-26T08:46:04.061Z,31.36
2016-08-26T08:47:04.049Z,31.44
2016-08-26T08:48:04.062Z,31.4
2016-08-26T08:49:04.029Z,31.37
2016-08-26T08:50:04.026Z,31.47
2016-08-26T08:51:04.010Z,31.47
2016-08-26T08:52:03.998Z,31.46
2016-08-26T08:53:03.996Z,31.51
2016-08-26T08:54:03.980Z,31.47
2016-08-26T08:55:03.968Z,31.47
2016-08-26T08:56:03.959Z,31.42
2016-08-26T08:57:03.950Z,31.56
2016-08-26T08:58:03.937Z,31.59
2016-08-26T08:59:03.928Z,31.52
2016-08-26T09:00:03.923Z,31.52
2016-08-26T09:01:03.914Z,31.62
2016-08-26T09:02:03.902Z,31.62
2016-08-26T09:03:03.888Z,31.59
2016-08-26T09:04:03.876Z,31.7
2016-08-26T09:05:03.868Z,31.64
2016-08-26T09:06:03.860Z,31.69
2016-08-26T09:07:03.849Z,31.7
2016-08-26T09:08:03.839Z,31.69
2016-08-26T09:09:03.828Z,31.7
2016-08-26T09:10:03.818Z,31.7
2016-08-26T09:11:03.808Z,31.71
2016-08-26T09:12:03.797Z,31.69
2016-08-26T09:13:03.783Z,31.69
2016-08-26T09:14:03.880Z,31.66
2016-08-26T09:15:03.766Z,31.76
2016-08-26T09:16:03.758Z,31.7
2016-08-26T09:17:03.744Z,31.8
2016-08-26T09:18:03.734Z,31.8
2016-08-26T09:19:03.730Z,31.89
2016-08-26T09:20:03.717Z,31.93
2016-08-26T09:21:03.705Z,31.87
2016-08-26T09:22:03.694Z,31.81
2016-08-26T09:23:03.686Z,31.87
2016-08-26T09:24:03.674Z,31.89
2016-08-26T09:25:03.663Z,31.93
2016-08-26T09:26:03.658Z,31.96
2016-08-26T09:27:03.643Z,31.96
2016-08-26T09:28:03.630Z,32.04
2016-08-26T09:29:03.624Z,32.08
2016-08-26T09:30:03.615Z,31.97
2016-08-26T09:31:03.603Z,32
2016-08-26T09:32:03.640Z,32.11
2016-08-26T09:33:03.582Z,32.12
2016-08-26T09:34:03.570Z,32.23
2016-08-26T09:35:03.572Z,32.19
2016-08-26T09:36:03.552Z,32.11
2016-08-26T09:37:03.541Z,32.11
2016-08-26T09:38:03.538Z,32.19
2016-08-26T09:39:03.523Z,32.11
2016-08-26T09:40:03.517Z,32.19
2016-08-26T09:41:03.507Z,32.22
2016-08-26T09:42:04.196Z,32.27
2016-08-26T09:43:03.480Z,32.18
2016-08-26T09:44:03.475Z,32.22
2016-08-26T09:45:03.469Z,32.26
2016-08-26T09:46:03.453Z,32.34
2016-08-26T09:47:03.443Z,32.36
2016-08-26T09:48:03.433Z,32.48
2016-08-26T09:49:03.424Z,32.49
2016-08-26T09:50:03.416Z,32.43
2016-08-26T09:51:03.406Z,32.46
2016-08-26T09:52:03.396Z,32.53
2016-08-26T09:53:03.385Z,32.53
2016-08-26T09:54:03.377Z,32.56
2016-08-26T09:55:03.369Z,32.56
2016-08-26T09:56:03.358Z,32.55
2016-08-26T09:57:03.346Z,32.58
2016-08-26T09:58:03.338Z,32.68
2016-08-26T09:59:03.336Z,32.7
2016-08-26T10:00:03.318Z,32.71
2016-08-26T10:01:03.326Z,32.73
2016-08-26T10:02:03.304Z,32.86
2016-08-26T10:03:03.291Z,32.85
2016-08-26T10:04:03.282Z,32.82
2016-08-26T10:05:03.274Z,32.77
2016-08-26T10:06:03.266Z,32.86
2016-08-26T10:07:03.252Z,32.92
2016-08-26T10:08:03.242Z,32.86
2016-08-26T10:09:03.236Z,33
2016-08-26T10:10:03.224Z,32.92
2016-08-26T10:11:03.214Z,32.97
2016-08-26T10:12:03.206Z,32.97
2016-08-26T10:13:03.195Z,33.19
2016-08-26T10:14:03.190Z,33.14
2016-08-26T10:15:03.177Z,33.17
2016-08-26T10:16:03.168Z,33.17
2016-08-26T10:17:03.164Z,33.23
2016-08-26T10:18:03.149Z,33.15
2016-08-26T10:19:03.146Z,33.27
2016-08-26T10:20:03.129Z,33.28
2016-08-26T10:21:03.123Z,33.23
2016-08-26T10:22:03.114Z,33.32
2016-08-26T10:23:03.101Z,33.4
2016-08-26T10:24:03.096Z,33.39
2016-08-26T10:25:03.085Z,33.39
2016-08-26T10:26:03.073Z,33.46
2016-08-26T10:27:03.067Z,33.45
2016-08-26T10:28:03.058Z,33.55
2016-08-26T10:29:03.047Z,33.53
2016-08-26T10:30:03.042Z,33.62
2016-08-26T10:31:03.028Z,33.61
2016-08-26T10:32:03.019Z,33.68
2016-08-26T10:33:03.014Z,33.79
2016-08-26T10:34:03.000Z,33.89
2016-08-26T10:35:02.993Z,33.83
2016-08-26T10:36:02.994Z,33.9
2016-08-26T10:37:02.976Z,33.95
2016-08-26T10:38:02.965Z,33.99
2016-08-26T10:39:02.961Z,33.95
2016-08-26T10:40:02.949Z,33.95
2016-08-26T10:41:02.942Z,34.06
2016-08-26T10:42:02.936Z,34.01
2016-08-26T10:43:02.928Z,34.13
2016-08-26T10:44:02.913Z,34.14
2016-08-26T10:45:02.914Z,34.18
2016-08-26T10:46:02.899Z,34.18
2016-08-26T10:47:02.890Z,34.27
2016-08-26T10:48:02.879Z,34.27
2016-08-26T10:49:02.874Z,34.35
2016-08-26T10:50:02.865Z,34.36
2016-08-26T10:51:02.859Z,34.38
2016-08-26T10:52:02.850Z,34.48
2016-08-26T10:53:02.843Z,34.45
2016-08-26T10:54:02.834Z,34.6
2016-08-26T10:55:02.824Z,34.58
2016-08-26T10:56:02.818Z,34.58
2016-08-26T10:57:02.807Z,34.71
2016-08-26T10:58:02.799Z,34.73
2016-08-26T10:59:02.792Z,34.73
2016-08-26T11:00:02.784Z,34.75
2016-08-26T11:01:02.777Z,34.74
2016-08-26T11:02:02.769Z,34.75
2016-08-26T11:03:02.766Z,34.8
2016-08-26T11:04:02.754Z,34.92
2016-08-26T11:05:02.746Z,34.85
2016-08-26T11:06:02.744Z,34.9
2016-08-26T11:07:02.733Z,34.86
2016-08-26T11:08:02.738Z,34.83
2016-08-26T11:09:02.723Z,34.8
2016-08-26T11:10:02.719Z,34.8
2016-08-26T11:11:02.699Z,34.85
2016-08-26T11:12:02.691Z,34.78
2016-08-26T11:13:02.682Z,34.74
2016-08-26T11:14:02.677Z,34.74
2016-08-26T11:15:02.676Z,34.73
2016-08-26T11:16:02.661Z,34.71
2016-08-26T11:17:02.659Z,34.77
2016-08-26T11:18:02.644Z,34.8
2016-08-26T11:19:02.639Z,34.77
2016-08-26T11:20:02.632Z,34.67
2016-08-26T11:21:02.623Z,34.66
2016-08-26T11:22:02.616Z,34.57
2016-08-26T11:23:02.610Z,34.47
2016-08-26T11:24:02.599Z,34.43
2016-08-26T11:25:02.592Z,34.42
2016-08-26T11:26:02.587Z,34.3
2016-08-26T11:27:02.584Z,34.32
2016-08-26T11:28:02.569Z,34.25
2016-08-26T11:29:02.565Z,34.36
2016-08-26T11:30:02.562Z,34.36
2016-08-26T11:31:02.550Z,34.25
2016-08-26T11:32:02.540Z,34.23
2016-08-26T11:33:02.532Z,34.2
2016-08-26T11:34:02.531Z,34.16
2016-08-26T11:35:02.515Z,34.2
2016-08-26T11:36:02.512Z,34.2
2016-08-26T11:37:02.503Z,34.21
2016-08-26T11:38:02.494Z,34.17
2016-08-26T11:39:02.488Z,34.18
2016-08-26T11:40:02.481Z,34.05
2016-08-26T11:41:02.480Z,34.08
2016-08-26T11:42:02.470Z,34.16
2016-08-26T11:43:02.455Z,34.1
2016-08-26T11:44:02.449Z,34.05
2016-08-26T11:45:02.440Z,34.13
2016-08-26T11:46:02.434Z,34.05
2016-08-26T11:47:02.427Z,34.1
2016-08-26T11:48:02.416Z,34.01
2016-08-26T11:49:02.411Z,34.11
2016-08-26T11:50:02.402Z,34.1
2016-08-26T11:51:02.397Z,34.11
2016-08-26T11:52:02.382Z,34.08
2016-08-26T11:53:02.380Z,34.13
2016-08-26T11:54:02.370Z,34.05
2016-08-26T11:55:02.366Z,34.1
2016-08-26T11:56:02.357Z,34.13
2016-08-26T11:57:02.352Z,34.18
2016-08-26T11:58:02.340Z,34.21
2016-08-26T11:59:02.337Z,34.18
2016-08-26T12:00:02.327Z,34.18
2016-08-26T12:01:02.324Z,34.18
2016-08-26T12:02:02.312Z,34.16
2016-08-26T12:03:02.304Z,34.16
2016-08-26T12:04:02.990Z,34.2
2016-08-26T12:05:02.288Z,34.24
2016-08-26T12:06:02.282Z,34.25
2016-08-26T12:07:02.274Z,34.38
2016-08-26T12:08:02.264Z,34.43
2016-08-26T12:09:02.259Z,34.38
2016-08-26T12:10:02.251Z,34.35
2016-08-26T12:11:02.243Z,34.25
2016-08-26T12:12:02.237Z,34.27
2016-08-26T12:13:02.227Z,34.21
2016-08-26T12:14:02.220Z,34.17
2016-08-26T12:15:02.221Z,34.33
2016-08-26T12:16:02.200Z,34.33
2016-08-26T12:17:02.197Z,34.39
2016-08-26T12:18:02.189Z,34.47
2016-08-26T12:19:02.175Z,34.4
2016-08-26T12:20:02.170Z,34.43
2016-08-26T12:21:02.164Z,34.45
2016-08-26T12:22:02.163Z,34.39
2016-08-26T12:23:02.147Z,34.45
2016-08-26T12:24:02.141Z,34.47
2016-08-26T12:25:02.132Z,34.5
2016-08-26T12:26:02.125Z,34.62
2016-08-26T12:27:02.116Z,34.61
2016-08-26T12:28:02.107Z,34.58
2016-08-26T12:29:02.101Z,34.66
2016-08-26T12:30:02.090Z,34.58
2016-08-26T12:31:02.083Z,34.67
2016-08-26T12:32:02.076Z,34.62
2016-08-26T12:33:02.071Z,34.78
2016-08-26T12:34:02.057Z,34.78
2016-08-26T12:35:02.055Z,34.83
2016-08-26T12:36:02.045Z,34.78
2016-08-26T12:37:02.033Z,34.75
2016-08-26T12:38:02.029Z,34.74
2016-08-26T12:39:02.021Z,34.77
2016-08-26T12:40:02.011Z,34.74
2016-08-26T12:41:02.004Z,34.73
2016-08-26T12:42:01.997Z,34.75
2016-08-26T12:43:01.987Z,34.8
2016-08-26T12:44:01.987Z,34.77
2016-08-26T12:45:01.977Z,34.71
2016-08-26T12:46:01.964Z,34.86
2016-08-26T12:47:01.979Z,34.81
2016-08-26T12:48:01.951Z,34.83
2016-08-26T12:49:01.944Z,34.9
2016-08-26T12:50:01.937Z,34.89
2016-08-26T12:51:01.927Z,34.89
2016-08-26T12:52:01.920Z,34.89
2016-08-26T12:53:01.912Z,34.83
2016-08-26T12:54:01.904Z,34.88
2016-08-26T12:55:01.898Z,34.89